IAH weather

George Bush Intercontinental Houston Airport
Houston, Texas, United States

Public forecast

Using degrees Fahrenheit for public forecast. Weather courtesy of forecast.io.

METAR (pilot weather report)

Retrieved 2017/10/19 10:53 UTC (55 minutes ago):

KIAH 191053Z 01004KT 9SM BKN034 BKN250 18/17 A3012 RMK AO2 SLP198 T01830172

TAF (pilot weather forecast)

Retrieved 2017/10/19 06:22 UTC (5 hours ago):

TAF KIAH 190520Z 1906/2012 16005KT P6SM FEW040 SCT250 FM190900 09003KT 6SM MIFG SKC FM191200 VRB03KT P6SM FEW035 FM191600 09008KT P6SM SCT040 SCT250 FM200300 10005KT P6SM SCT025 BKN090 OVC250 FM200800 09005KT P6SM BKN020 BKN100